Cruzeiro Do Canal — CSVG — position and weather

sailwx.info

Track history (hours):
 
Tides and Currents Weather Stations Pressure Air Temp Water Temp Dewpoint Dewpoint Depression Visibility Wind Speed Wind Dir Waves Ship Positions

Cruzeiro Do Canal

Last reported at 2014-Oct-11 00:33 UTC. Time now 2014-Oct-25 07:50 UTC.
Position N 38°32' W 028°32'.
Warning: this ship's position is 14 days out of date.

Length 32 m.

Type: Passenger vessel. MMSI: 204701250.

Date/timePositionNaut miles runAvg speedWind from/ knotsBaromVisibWave heightAir tempDewpointWater temp
2014-Oct-11 00:33N 38°32' W 028°32'4 0.1
2014-Oct-09 12:27N 38°32' W 028°38'5 5.0
2014-Oct-09 11:33N 38°32' W 028°32'4 3.6
2014-Oct-09 10:33N 38°31' W 028°36'1 1.1
2014-Oct-09 09:33N 38°32' W 028°38'0 0.0
2014-Oct-09 08:33N 38°32' W 028°38'0 0.0
2014-Oct-08 17:27N 38°32' W 028°38'0 0.0
2014-Oct-08 16:33N 38°32' W 028°38'0 0.5
2014-Oct-08 15:33N 38°32' W 028°37'0 0.5
2014-Oct-08 14:33N 38°32' W 028°38'0 0.0
2014-Oct-08 13:33N 38°32' W 028°38'0 0.0
2014-Oct-08 12:34N 38°32' W 028°38'0 0.0
2014-Oct-08 11:33N 38°32' W 028°38'0 0.0
2014-Oct-08 10:33N 38°32' W 028°38'0 0.0
2014-Oct-08 09:33N 38°32' W 028°38'0 0.0
2014-Oct-08 08:33N 38°32' W 028°38'0 0.0
2014-Oct-08 07:33N 38°32' W 028°38'  
Track history (hours):
 
Tides and Currents Weather Stations Pressure Air Temp Water Temp Dewpoint Dewpoint Depression Visibility Wind Speed Wind Dir Waves Ship Positions

Cruzeiro Do Canal

Last reported at 2014-Oct-11 00:33 UTC. Time now 2014-Oct-25 07:50 UTC.
Position N 38°32' W 028°32'.
Warning: this ship's position is 14 days out of date.

Length 32 m.

Type: Passenger vessel. MMSI: 204701250.

Date/timePositionNaut miles runAvg speedWind from/ knotsBaromVisibWave heightAir tempDewpointWater temp
2014-Oct-11 00:33N 38°32' W 028°32'4 0.1
2014-Oct-09 12:27N 38°32' W 028°38'5 5.0
2014-Oct-09 11:33N 38°32' W 028°32'4 3.6
2014-Oct-09 10:33N 38°31' W 028°36'1 1.1
2014-Oct-09 09:33N 38°32' W 028°38'0 0.0
2014-Oct-09 08:33N 38°32' W 028°38'0 0.0
2014-Oct-08 17:27N 38°32' W 028°38'0 0.0
2014-Oct-08 16:33N 38°32' W 028°38'0 0.5
2014-Oct-08 15:33N 38°32' W 028°37'0 0.5
2014-Oct-08 14:33N 38°32' W 028°38'0 0.0
2014-Oct-08 13:33N 38°32' W 028°38'0 0.0
2014-Oct-08 12:34N 38°32' W 028°38'0 0.0
2014-Oct-08 11:33N 38°32' W 028°38'0 0.0
2014-Oct-08 10:33N 38°32' W 028°38'0 0.0
2014-Oct-08 09:33N 38°32' W 028°38'0 0.0
2014-Oct-08 08:33N 38°32' W 028°38'0 0.0
2014-Oct-08 07:33N 38°32' W 028°38'  

Dump ship's entire track history